This is the latest recevied weather packets stored in our database for station/object VK4ZPK-13. If no packets are shown the sender has not sent any weather packets the latest 10 day(s).
| Time | Temp. | Humidity | Pressure | Rain* | Wind** | Luminosity | Snow |
|---|---|---|---|---|---|---|---|
| 1788150679 | 71° F | 65% | 767.9 mmHg | 0 in | - | - | - |
| 1788148879 | 71° F | 66% | 768 mmHg | 0 in | - | - | - |
| 1788147079 | 73° F | 65% | 768 mmHg | 0 in | - | - | - |
| 1788145279 | 73° F | 60% | 768.1 mmHg | 0 in | - | - | - |
| 1788143479 | 74° F | 57% | 768.1 mmHg | 0 in | - | - | - |
| 1788141679 | 74° F | 56% | 768.3 mmHg | 0 in | - | - | - |
| 1788139879 | 73° F | 56% | 768.6 mmHg | 0 in | - | - | - |
| 1788138079 | 73° F | 57% | 768.9 mmHg | 0 in | - | - | - |
| 1788136279 | 72° F | 63% | 769.2 mmHg | 0 in | - | - | - |
| 1788134479 | 69° F | 79% | 769.3 mmHg | 0 in | - | - | - |
| 1788132679 | 69° F | 81% | 769.3 mmHg | 0 in | - | - | - |
| 1788130879 | 66° F | 90% | 769.3 mmHg | 0 in | - | - | - |
| 1788129079 | 63° F | 94% | 769.1 mmHg | 0 in | - | - | - |
| 1788127279 | 60° F | 94% | 769 mmHg | 0 in | - | - | - |
| 1788125479 | 58° F | 94% | 768.9 mmHg | 0 in | - | - | - |
| 1788123679 | 57° F | 93% | 768.6 mmHg | 0 in | - | - | - |
| 1788121879 | 57° F | 92% | 768.4 mmHg | 0 in | - | - | - |
| 1788120079 | 57° F | 92% | 768.1 mmHg | 0 in | - | - | - |
| 1788118279 | 57° F | 92% | 768 mmHg | 0 in | - | - | - |
| 1788116479 | 57° F | 92% | 767.9 mmHg | 0 in | - | - | - |
| 1788114679 | 57° F | 93% | 767.8 mmHg | 0 in | - | - | - |
| 1788112879 | 57° F | 92% | 767.8 mmHg | 0 in | - | - | - |
| 1788111079 | 57° F | 92% | 767.8 mmHg | 0 in | - | - | - |
| 1788109279 | 58° F | 93% | 767.8 mmHg | 0 in | - | - | - |
| 1788107479 | 58° F | 93% | 767.9 mmHg | 0 in | - | - | - |
* Rain latest hour (hover to see other rain measurements)
** Current wind speed in m/s (hover to see current wind gust speed)